Time;durP1;ratioP1;P1;durP2;ratioP2;P2;SDS_P1;SDS_P2;PMS_P1;PMS_P2;Temp;Humidity;BMP_temperature;BMP_pressure;BME280_temperature;BME280_humidity;BME280_pressure;Samples;Min_cycle;Max_cycle;Signal;HPM_P1;HPM_P2
2022/11/03 00:01:59;;;;;;;1.88;0.70;;;;;;;;;;5043373;28;20038;-66
2022/11/03 00:04:26;;;;;;;1.65;0.68;;;;;;;;;;5039410;28;20040;-67
2022/11/03 00:06:53;;;;;;;1.88;0.70;;;;;;;;;;5021923;28;20549;-67
2022/11/03 00:09:21;;;;;;;2.92;0.88;;;;;;;;;;5031604;28;20081;-66
2022/11/03 00:11:52;;;;;;;3.10;0.80;;;;;;;;;;5034493;28;20091;-66
2022/11/03 00:14:19;;;;;;;1.13;0.50;;;;;;;;;;5043780;28;20130;-66
2022/11/03 00:16:46;;;;;;;1.65;0.80;;;;;;;;;;5027612;28;20051;-65
2022/11/03 00:19:15;;;;;;;1.90;0.82;;;;;;;;;;5040064;28;20314;-66
2022/11/03 00:21:41;;;;;;;2.47;0.80;;;;;;;;;;5042156;28;20469;-65
2022/11/03 00:24:08;;;;;;;3.03;0.82;;;;;;;;;;5045407;28;20044;-64
2022/11/03 00:26:35;;;;;;;3.03;1.02;;;;;;;;;;5040611;28;21019;-66
2022/11/03 00:29:06;;;;;;;1.33;0.55;;;;;;;;;;5040708;28;20047;-65
2022/11/03 00:31:34;;;;;;;1.38;0.50;;;;;;;;;;5040808;28;20060;-66
2022/11/03 00:34:01;;;;;;;1.75;0.50;;;;;;;;;;5041330;28;20099;-66
2022/11/03 00:36:29;;;;;;;3.38;1.10;;;;;;;;;;5041190;28;20606;-66
2022/11/03 00:38:56;;;;;;;0.68;0.40;;;;;;;;;;5047228;28;20036;-66
2022/11/03 00:41:23;;;;;;;3.03;0.80;;;;;;;;;;5040676;28;20119;-66
2022/11/03 00:43:50;;;;;;;1.38;0.65;;;;;;;;;;5041074;28;20044;-66
2022/11/03 00:46:18;;;;;;;1.65;0.60;;;;;;;;;;5040470;28;20076;-67
2022/11/03 00:48:44;;;;;;;1.60;0.65;;;;;;;;;;5019121;28;20037;-66
2022/11/03 00:51:17;;;;;;;3.90;0.88;;;;;;;;;;5039520;28;20052;-67
2022/11/03 00:53:48;;;;;;;2.45;1.00;;;;;;;;;;5039263;28;20037;-66
2022/11/03 00:56:14;;;;;;;1.40;0.47;;;;;;;;;;5042527;28;20045;-64
2022/11/03 00:58:41;;;;;;;2.63;1.02;;;;;;;;;;5040454;28;20486;-65
2022/11/03 01:01:10;;;;;;;2.45;0.85;;;;;;;;;;5041418;28;20080;-65
2022/11/03 01:03:38;;;;;;;2.35;0.80;;;;;;;;;;5030899;28;20033;-65
2022/11/03 01:08:53;;;;;;;2.70;0.80;;;;;;;;;;5024858;28;20123;-65
2022/11/03 01:14:07;;;;;;;1.23;0.52;;;;;;;;;;5040164;28;20044;-67
2022/11/03 01:16:34;;;;;;;3.50;0.63;;;;;;;;;;5041084;28;20047;-65
2022/11/03 01:19:00;;;;;;;1.55;0.50;;;;;;;;;;5046824;28;20036;-67
2022/11/03 01:21:27;;;;;;;2.60;0.85;;;;;;;;;;5039711;28;20076;-65
2022/11/03 01:23:54;;;;;;;1.58;0.55;;;;;;;;;;5039492;28;20041;-67
2022/11/03 01:26:20;;;;;;;2.50;0.93;;;;;;;;;;5045354;28;20060;-66
2022/11/03 01:28:47;;;;;;;1.75;0.70;;;;;;;;;;5039264;28;20048;-66
2022/11/03 01:31:15;;;;;;;4.55;1.20;;;;;;;;;;5038490;28;20438;-66
2022/11/03 01:33:42;;;;;;;0.85;0.40;;;;;;;;;;5020301;28;20062;-64
2022/11/03 01:36:09;;;;;;;3.10;0.90;;;;;;;;;;5020601;28;20045;-65
2022/11/03 01:38:39;;;;;;;1.55;0.63;;;;;;;;;;5028289;28;20033;-66
2022/11/03 01:41:07;;;;;;;2.17;0.70;;;;;;;;;;5039597;28;20045;-66
2022/11/03 01:44:08;;;;;;;1.05;0.50;;;;;;;;;;5039153;28;20040;-66
2022/11/03 01:46:42;;;;;;;2.47;0.88;;;;;;;;;;5038660;28;20142;-67
2022/11/03 01:49:20;;;;;;;2.63;0.82;;;;;;;;;;5024768;28;20054;-66
2022/11/03 01:51:48;;;;;;;1.75;0.57;;;;;;;;;;5039113;28;20043;-66
2022/11/03 01:54:18;;;;;;;2.75;0.82;;;;;;;;;;5040195;28;20040;-67
2022/11/03 01:56:45;;;;;;;1.77;0.80;;;;;;;;;;5037665;28;20168;-65
2022/11/03 01:59:13;;;;;;;1.88;0.77;;;;;;;;;;5039176;28;21923;-65
2022/11/03 02:01:40;;;;;;;2.00;0.73;;;;;;;;;;5037851;28;20037;-66
2022/11/03 02:04:32;;;;;;;1.33;0.57;;;;;;;;;;5039593;28;20489;-65
2022/11/03 02:07:17;;;;;;;2.13;0.60;;;;;;;;;;5036809;28;20513;-66
2022/11/03 02:09:43;;;;;;;2.75;0.50;;;;;;;;;;5038029;28;20138;-66
2022/11/03 02:12:10;;;;;;;1.73;0.70;;;;;;;;;;5038120;28;20044;-65
2022/11/03 02:14:43;;;;;;;1.33;0.60;;;;;;;;;;5037680;28;20053;-66
2022/11/03 02:17:11;;;;;;;1.15;0.50;;;;;;;;;;5039644;28;20132;-66
2022/11/03 02:19:47;;;;;;;2.85;0.60;;;;;;;;;;5034809;28;20037;-65
2022/11/03 02:22:33;;;;;;;1.52;0.60;;;;;;;;;;5039110;28;20053;-66
2022/11/03 02:25:00;;;;;;;1.23;0.55;;;;;;;;;;5032922;28;20139;-66
2022/11/03 02:27:27;;;;;;;2.20;0.70;;;;;;;;;;5049170;28;20037;-65
2022/11/03 02:29:54;;;;;;;1.55;0.60;;;;;;;;;;5039444;28;20484;-66
2022/11/03 02:32:41;;;;;;;4.68;0.52;;;;;;;;;;5037226;28;20581;-63
2022/11/03 02:35:21;;;;;;;0.77;0.45;;;;;;;;;;5037958;28;20998;-65
2022/11/03 02:37:50;;;;;;;1.55;0.93;;;;;;;;;;5035717;28;20128;-66
2022/11/03 02:40:19;;;;;;;1.38;0.60;;;;;;;;;;5038315;28;20036;-65
2022/11/03 02:42:48;;;;;;;1.35;0.50;;;;;;;;;;5037426;28;20037;-67
2022/11/03 02:45:17;;;;;;;1.38;0.65;;;;;;;;;;5047323;28;20056;-67
2022/11/03 02:47:44;;;;;;;1.95;0.80;;;;;;;;;;5037683;28;20320;-65
2022/11/03 02:50:11;;;;;;;1.08;0.45;;;;;;;;;;5035822;28;20045;-64
2022/11/03 02:52:39;;;;;;;3.70;0.90;;;;;;;;;;5037579;28;20042;-66
2022/11/03 02:55:09;;;;;;;1.10;0.60;;;;;;;;;;5037001;28;20093;-66
2022/11/03 02:57:38;;;;;;;1.75;0.80;;;;;;;;;;5044581;28;20139;-66
2022/11/03 03:00:11;;;;;;;2.25;0.90;;;;;;;;;;5045991;28;20037;-65
2022/11/03 03:02:57;;;;;;;1.65;0.68;;;;;;;;;;5037364;28;20047;-66
2022/11/03 03:05:27;;;;;;;1.05;0.40;;;;;;;;;;5016672;28;20476;-65
2022/11/03 03:07:57;;;;;;;2.47;0.85;;;;;;;;;;5039906;28;20805;-63
2022/11/03 03:10:25;;;;;;;1.95;0.70;;;;;;;;;;5039159;28;20193;-64
2022/11/03 03:12:54;;;;;;;7.90;0.63;;;;;;;;;;5041149;28;20455;-65
2022/11/03 03:15:23;;;;;;;1.73;0.75;;;;;;;;;;5039555;28;20045;-65
2022/11/03 03:17:57;;;;;;;1.65;0.50;;;;;;;;;;5042349;28;20041;-65
2022/11/03 03:20:31;;;;;;;1.45;0.52;;;;;;;;;;5040438;28;20037;-64
2022/11/03 03:23:05;;;;;;;0.85;0.45;;;;;;;;;;5043308;28;20036;-65
2022/11/03 03:25:34;;;;;;;2.47;0.80;;;;;;;;;;5041151;28;20473;-61
2022/11/03 03:28:04;;;;;;;2.13;0.68;;;;;;;;;;5042164;28;20447;-66
2022/11/03 03:30:32;;;;;;;0.68;0.40;;;;;;;;;;5052325;28;20053;-65
2022/11/03 03:32:59;;;;;;;2.15;0.82;;;;;;;;;;5037526;28;20041;-64
2022/11/03 03:35:29;;;;;;;1.83;0.60;;;;;;;;;;5039653;28;20107;-64
2022/11/03 03:37:59;;;;;;;1.23;0.60;;;;;;;;;;5031698;28;20122;-65
2022/11/03 03:40:36;;;;;;;3.28;0.98;;;;;;;;;;5055376;28;20486;-65
2022/11/03 03:43:04;;;;;;;3.55;1.00;;;;;;;;;;5040239;28;20037;-63
2022/11/03 03:45:31;;;;;;;2.45;0.75;;;;;;;;;;5042219;28;20037;-65
2022/11/03 03:47:58;;;;;;;1.58;0.68;;;;;;;;;;5040324;28;20144;-65
2022/11/03 03:50:26;;;;;;;2.17;0.70;;;;;;;;;;5039888;28;20667;-62
2022/11/03 03:53:04;;;;;;;1.30;0.52;;;;;;;;;;5041500;28;20546;-66
2022/11/03 03:55:41;;;;;;;0.52;0.40;;;;;;;;;;5041154;28;20067;-65
2022/11/03 03:58:10;;;;;;;2.40;0.73;;;;;;;;;;5041590;28;20041;-65
2022/11/03 04:00:38;;;;;;;1.52;0.60;;;;;;;;;;5039771;28;20462;-64
2022/11/03 04:03:08;;;;;;;1.48;0.50;;;;;;;;;;5042591;28;20126;-62
2022/11/03 04:05:35;;;;;;;1.10;0.40;;;;;;;;;;5041126;28;20048;-65
2022/11/03 04:08:01;;;;;;;0.80;0.47;;;;;;;;;;5039700;28;20438;-65
2022/11/03 04:10:28;;;;;;;1.48;0.50;;;;;;;;;;5040367;28;20049;-64
2022/11/03 04:23:49;;;;;;;0.93;0.50;;;;;;;;;;5022797;28;20198;-65
2022/11/03 04:26:17;;;;;;;1.88;0.73;;;;;;;;;;5037697;28;20044;-63
2022/11/03 04:28:44;;;;;;;0.63;0.30;;;;;;;;;;5041658;28;20095;-63
2022/11/03 04:31:12;;;;;;;0.40;0.40;;;;;;;;;;5040485;28;20111;-63
2022/11/03 04:33:38;;;;;;;0.85;0.40;;;;;;;;;;5039198;28;20059;-65
2022/11/03 04:36:10;;;;;;;0.88;0.45;;;;;;;;;;5039312;28;20109;-66
2022/11/03 04:38:38;;;;;;;2.10;0.85;;;;;;;;;;5039380;28;20037;-65
2022/11/03 04:41:12;;;;;;;1.83;0.70;;;;;;;;;;5041028;28;20033;-63
2022/11/03 04:43:39;;;;;;;2.17;0.90;;;;;;;;;;5038655;28;20040;-64
2022/11/03 04:46:10;;;;;;;1.45;0.70;;;;;;;;;;5039898;28;20044;-64
2022/11/03 04:48:37;;;;;;;1.45;0.63;;;;;;;;;;5037794;28;20064;-65
2022/11/03 04:51:11;;;;;;;2.40;0.93;;;;;;;;;;5032022;28;20053;-64
2022/11/03 04:53:37;;;;;;;1.13;0.60;;;;;;;;;;5038884;28;20127;-65
2022/11/03 04:56:13;;;;;;;1.67;0.68;;;;;;;;;;5037861;28;20742;-64
2022/11/03 04:58:40;;;;;;;0.93;0.50;;;;;;;;;;5038495;28;20042;-64
2022/11/03 05:01:10;;;;;;;1.05;0.57;;;;;;;;;;5038611;28;20519;-65
2022/11/03 05:03:37;;;;;;;1.20;0.52;;;;;;;;;;5039291;28;20455;-64
2022/11/03 05:06:11;;;;;;;0.63;0.45;;;;;;;;;;5038909;28;20041;-65
2022/11/03 05:08:38;;;;;;;1.92;0.93;;;;;;;;;;5038998;28;21014;-65
2022/11/03 05:11:17;;;;;;;1.98;0.80;;;;;;;;;;5038168;28;20052;-63
2022/11/03 05:13:43;;;;;;;1.95;0.70;;;;;;;;;;5039972;28;20068;-65
2022/11/03 05:16:10;;;;;;;1.15;0.60;;;;;;;;;;5041096;28;20043;-65
2022/11/03 05:18:38;;;;;;;1.95;0.82;;;;;;;;;;5038513;28;20049;-64
2022/11/03 05:21:10;;;;;;;0.50;0.38;;;;;;;;;;5038027;28;20095;-65
2022/11/03 05:23:39;;;;;;;3.25;1.00;;;;;;;;;;5036357;28;20045;-64
2022/11/03 05:26:07;;;;;;;1.98;0.77;;;;;;;;;;5029140;28;20035;-65
2022/11/03 05:28:45;;;;;;;2.30;0.70;;;;;;;;;;5027124;28;20044;-63
2022/11/03 05:31:31;;;;;;;3.30;0.73;;;;;;;;;;5036309;28;20041;-63
2022/11/03 05:33:58;;;;;;;1.75;0.75;;;;;;;;;;5037744;28;20448;-63
2022/11/03 05:36:26;;;;;;;2.30;0.90;;;;;;;;;;5039716;28;20041;-63
2022/11/03 05:38:55;;;;;;;6.93;0.82;;;;;;;;;;5039231;28;20124;-64
2022/11/03 05:41:24;;;;;;;2.25;0.90;;;;;;;;;;5040770;28;20044;-65
2022/11/03 05:43:54;;;;;;;1.80;0.80;;;;;;;;;;5038792;28;21339;-65
2022/11/03 05:46:20;;;;;;;2.55;0.80;;;;;;;;;;5036664;28;20044;-63
2022/11/03 05:48:48;;;;;;;2.50;0.90;;;;;;;;;;5037984;28;20113;-64
2022/11/03 05:51:25;;;;;;;2.20;0.93;;;;;;;;;;5038488;28;20051;-65
2022/11/03 05:53:53;;;;;;;2.03;0.90;;;;;;;;;;5039500;28;20179;-66
2022/11/03 05:56:22;;;;;;;2.70;1.30;;;;;;;;;;5035857;28;20041;-67
2022/11/03 05:58:49;;;;;;;2.67;1.15;;;;;;;;;;5044905;28;20037;-65
2022/11/03 06:01:18;;;;;;;3.03;1.02;;;;;;;;;;5039527;28;20041;-64
2022/11/03 06:03:45;;;;;;;1.38;0.60;;;;;;;;;;5038252;28;20045;-65
2022/11/03 06:06:19;;;;;;;2.40;0.95;;;;;;;;;;5034359;28;20552;-64
2022/11/03 06:08:46;;;;;;;2.20;0.90;;;;;;;;;;5039034;28;20102;-65
2022/11/03 06:11:21;;;;;;;3.20;1.10;;;;;;;;;;5039355;28;20049;-64
2022/11/03 06:13:47;;;;;;;2.17;0.90;;;;;;;;;;5037351;28;20041;-64
2022/11/03 06:16:23;;;;;;;3.00;1.08;;;;;;;;;;5038447;28;20033;-65
2022/11/03 06:18:50;;;;;;;4.38;1.10;;;;;;;;;;5038625;28;20128;-63
2022/11/03 06:21:19;;;;;;;3.15;1.08;;;;;;;;;;5036268;28;20033;-66
2022/11/03 06:23:46;;;;;;;3.08;1.02;;;;;;;;;;5037513;28;20049;-66
2022/11/03 06:26:18;;;;;;;2.83;1.00;;;;;;;;;;5038543;28;20924;-64
2022/11/03 06:28:45;;;;;;;3.80;1.25;;;;;;;;;;5037092;28;20891;-65
2022/11/03 06:31:17;;;;;;;3.40;1.13;;;;;;;;;;5038314;28;20733;-65
2022/11/03 06:33:44;;;;;;;1.95;0.85;;;;;;;;;;5024619;28;20083;-65
2022/11/03 06:36:13;;;;;;;3.28;1.30;;;;;;;;;;5024207;28;20529;-64
2022/11/03 06:38:40;;;;;;;2.42;1.13;;;;;;;;;;5036556;28;20052;-65
2022/11/03 06:41:14;;;;;;;2.28;0.98;;;;;;;;;;5039368;28;20042;-64
2022/11/03 06:43:42;;;;;;;2.45;0.82;;;;;;;;;;5035759;28;20051;-65
2022/11/03 06:46:25;;;;;;;3.53;1.00;;;;;;;;;;5044679;28;20108;-64
2022/11/03 06:48:58;;;;;;;4.20;0.98;;;;;;;;;;5038462;28;20126;-65
2022/11/03 06:51:29;;;;;;;3.15;1.05;;;;;;;;;;5043311;28;20055;-65
2022/11/03 06:53:58;;;;;;;1.98;1.02;;;;;;;;;;5043603;28;20056;-66
2022/11/03 06:56:26;;;;;;;3.55;0.93;;;;;;;;;;5040396;28;20037;-64
2022/11/03 06:58:54;;;;;;;2.13;0.77;;;;;;;;;;5041303;28;20041;-64
2022/11/03 07:01:20;;;;;;;1.67;0.70;;;;;;;;;;5040221;28;20055;-65
2022/11/03 07:03:49;;;;;;;1.83;0.77;;;;;;;;;;5042508;28;20056;-63
2022/11/03 07:06:26;;;;;;;3.30;1.13;;;;;;;;;;5042431;28;20053;-65
2022/11/03 07:08:59;;;;;;;2.40;0.82;;;;;;;;;;5034757;28;20510;-64
2022/11/03 07:11:30;;;;;;;2.10;0.90;;;;;;;;;;5047977;28;20052;-66
2022/11/03 07:14:18;;;;;;;1.63;0.80;;;;;;;;;;5042203;28;20037;-62
2022/11/03 07:16:46;;;;;;;2.25;0.82;;;;;;;;;;5039709;28;20041;-63
2022/11/03 07:19:33;;;;;;;3.58;1.10;;;;;;;;;;5042016;28;20473;-63
2022/11/03 07:22:05;;;;;;;1.65;0.65;;;;;;;;;;5025282;28;20067;-62
2022/11/03 07:24:36;;;;;;;2.20;0.80;;;;;;;;;;5052242;28;20041;-67
2022/11/03 07:27:03;;;;;;;4.00;0.90;;;;;;;;;;5040917;28;20098;-65
2022/11/03 07:29:30;;;;;;;2.60;0.90;;;;;;;;;;5042310;28;20060;-64
2022/11/03 07:31:58;;;;;;;1.75;0.60;;;;;;;;;;5032055;28;20174;-66
2022/11/03 07:34:27;;;;;;;2.97;0.95;;;;;;;;;;5042053;28;20133;-65
2022/11/03 07:36:56;;;;;;;2.05;0.65;;;;;;;;;;5042039;28;20034;-64
2022/11/03 07:39:23;;;;;;;2.35;1.00;;;;;;;;;;5047009;28;20037;-64
2022/11/03 07:41:50;;;;;;;1.85;0.70;;;;;;;;;;5041909;28;20052;-64
2022/11/03 07:44:36;;;;;;;1.58;0.73;;;;;;;;;;5037433;28;20213;-63
2022/11/03 07:47:04;;;;;;;2.88;1.20;;;;;;;;;;5035718;28;20066;-64
2022/11/03 07:49:30;;;;;;;2.00;0.70;;;;;;;;;;5038492;28;20033;-63
2022/11/03 07:51:58;;;;;;;1.88;0.77;;;;;;;;;;5038913;28;20045;-65
2022/11/03 07:54:25;;;;;;;1.98;0.70;;;;;;;;;;5037669;28;20044;-65
2022/11/03 07:56:56;;;;;;;1.63;0.77;;;;;;;;;;5040217;28;20044;-63
2022/11/03 07:59:30;;;;;;;2.28;0.80;;;;;;;;;;5038335;28;20071;-62
2022/11/03 08:01:57;;;;;;;2.75;0.98;;;;;;;;;;5036043;28;20044;-65
2022/11/03 08:04:24;;;;;;;3.17;1.05;;;;;;;;;;5038039;28;20127;-66
2022/11/03 08:06:50;;;;;;;2.17;0.90;;;;;;;;;;5036454;28;20037;-65
2022/11/03 08:09:17;;;;;;;1.52;0.70;;;;;;;;;;5035572;28;20049;-66
2022/11/03 08:11:45;;;;;;;1.55;0.63;;;;;;;;;;5037875;28;20083;-66
2022/11/03 08:14:12;;;;;;;1.73;0.80;;;;;;;;;;5038668;28;20135;-65
2022/11/03 08:16:39;;;;;;;2.10;0.88;;;;;;;;;;5038159;28;20045;-64
2022/11/03 08:19:06;;;;;;;2.22;0.95;;;;;;;;;;5038911;28;21558;-65
2022/11/03 08:21:33;;;;;;;2.63;0.95;;;;;;;;;;5036640;28;20175;-66
2022/11/03 08:23:59;;;;;;;10.07;1.17;;;;;;;;;;5040822;28;20042;-66
2022/11/03 08:26:26;;;;;;;1.98;0.93;;;;;;;;;;5041316;28;20524;-63
2022/11/03 08:28:53;;;;;;;2.28;1.08;;;;;;;;;;5040329;28;20489;-64
2022/11/03 08:31:19;;;;;;;2.05;0.85;;;;;;;;;;5040301;28;20395;-64
2022/11/03 08:33:46;;;;;;;1.95;0.90;;;;;;;;;;5042920;28;20102;-66
2022/11/03 08:36:13;;;;;;;5.13;0.82;;;;;;;;;;5042418;28;20036;-64
2022/11/03 08:38:39;;;;;;;2.65;1.13;;;;;;;;;;5042616;28;20556;-66
2022/11/03 08:41:06;;;;;;;2.50;1.00;;;;;;;;;;5030188;28;20041;-62
2022/11/03 08:43:32;;;;;;;2.42;1.05;;;;;;;;;;5041049;28;20048;-63
2022/11/03 08:45:59;;;;;;;1.95;1.05;;;;;;;;;;5048911;28;20041;-64
2022/11/03 08:48:28;;;;;;;1.92;0.85;;;;;;;;;;5039300;28;20079;-65
2022/11/03 08:50:54;;;;;;;1.95;0.90;;;;;;;;;;5044395;28;20075;-66
2022/11/03 08:53:24;;;;;;;2.80;1.20;;;;;;;;;;5046955;28;20481;-63
2022/11/03 08:55:51;;;;;;;3.92;1.30;;;;;;;;;;5041480;28;20406;-63
2022/11/03 08:58:18;;;;;;;1.85;0.75;;;;;;;;;;5041024;28;20045;-62
2022/11/03 09:00:44;;;;;;;3.20;1.10;;;;;;;;;;5028787;28;20041;-64
2022/11/03 09:03:11;;;;;;;2.08;0.98;;;;;;;;;;5040870;28;20045;-63
2022/11/03 09:05:37;;;;;;;1.52;0.68;;;;;;;;;;5038455;28;20169;-63
2022/11/03 09:08:04;;;;;;;3.40;1.33;;;;;;;;;;5039331;28;20035;-64
2022/11/03 09:10:31;;;;;;;3.67;1.10;;;;;;;;;;5039984;28;20136;-64
2022/11/03 09:12:58;;;;;;;1.88;0.70;;;;;;;;;;5037606;28;20068;-64
2022/11/03 09:15:24;;;;;;;3.58;1.40;;;;;;;;;;5052927;28;20047;-64
2022/11/03 09:17:51;;;;;;;2.80;1.33;;;;;;;;;;5039856;28;20048;-65
2022/11/03 09:20:17;;;;;;;2.55;1.20;;;;;;;;;;5039149;28;20037;-65
2022/11/03 09:22:44;;;;;;;2.35;1.05;;;;;;;;;;5026538;28;20089;-65
2022/11/03 09:25:11;;;;;;;1.85;1.05;;;;;;;;;;5038178;28;20037;-63
2022/11/03 09:27:38;;;;;;;10.48;1.15;;;;;;;;;;5039166;28;20037;-64
2022/11/03 09:30:05;;;;;;;2.25;1.00;;;;;;;;;;5037699;28;20041;-63
2022/11/03 09:32:32;;;;;;;2.92;1.33;;;;;;;;;;5039681;28;20045;-63
2022/11/03 09:34:58;;;;;;;2.63;1.17;;;;;;;;;;5040452;28;20497;-66
2022/11/03 09:37:25;;;;;;;1.88;0.93;;;;;;;;;;5046713;28;20033;-65
2022/11/03 09:39:52;;;;;;;4.53;1.73;;;;;;;;;;5021392;28;20077;-63
2022/11/03 09:42:18;;;;;;;2.60;1.10;;;;;;;;;;5019245;28;20037;-65
2022/11/03 09:44:47;;;;;;;2.22;0.98;;;;;;;;;;5024193;28;20029;-63
2022/11/03 09:47:22;;;;;;;2.15;1.05;;;;;;;;;;5047511;28;20497;-63
2022/11/03 09:49:48;;;;;;;6.28;1.30;;;;;;;;;;5039552;28;20040;-64
2022/11/03 09:52:17;;;;;;;1.75;0.80;;;;;;;;;;5040534;28;20053;-64
2022/11/03 09:54:44;;;;;;;2.22;1.05;;;;;;;;;;5043691;28;20185;-65
2022/11/03 09:57:15;;;;;;;2.47;0.98;;;;;;;;;;5045149;28;20044;-64
2022/11/03 09:59:47;;;;;;;2.30;1.05;;;;;;;;;;5043061;28;20076;-64
2022/11/03 10:02:21;;;;;;;1.73;0.90;;;;;;;;;;5043715;28;20036;-65
2022/11/03 10:04:48;;;;;;;2.65;1.02;;;;;;;;;;5041422;28;20044;-63
2022/11/03 10:07:15;;;;;;;4.45;1.77;;;;;;;;;;5041885;28;20036;-65
2022/11/03 10:09:44;;;;;;;3.22;1.23;;;;;;;;;;5040217;28;20119;-64
2022/11/03 10:12:11;;;;;;;5.00;1.30;;;;;;;;;;5040642;28;20095;-63
2022/11/03 10:14:38;;;;;;;4.53;1.40;;;;;;;;;;5042991;28;20044;-63
2022/11/03 10:17:05;;;;;;;3.28;1.38;;;;;;;;;;5041452;28;20048;-63
2022/11/03 10:19:32;;;;;;;6.10;1.70;;;;;;;;;;5038492;28;20044;-63
2022/11/03 10:21:58;;;;;;;4.47;1.38;;;;;;;;;;5040331;28;20120;-64
2022/11/03 10:24:25;;;;;;;2.22;0.93;;;;;;;;;;5039393;28;20108;-64
2022/11/03 10:26:56;;;;;;;2.33;1.08;;;;;;;;;;5041951;28;20049;-64
2022/11/03 10:29:26;;;;;;;5.15;1.48;;;;;;;;;;5039773;28;20048;-63
2022/11/03 10:31:54;;;;;;;2.45;1.10;;;;;;;;;;5037096;28;20124;-63
2022/11/03 10:34:26;;;;;;;1.70;0.90;;;;;;;;;;5036664;28;20117;-64
2022/11/03 10:37:16;;;;;;;2.73;1.33;;;;;;;;;;5039436;28;20050;-63
2022/11/03 10:39:46;;;;;;;2.60;1.25;;;;;;;;;;5019486;28;20042;-64
2022/11/03 10:42:23;;;;;;;3.38;1.67;;;;;;;;;;5019576;28;20044;-63
2022/11/03 10:44:52;;;;;;;2.05;1.13;;;;;;;;;;5018330;28;20214;-63
2022/11/03 10:47:24;;;;;;;3.30;1.60;;;;;;;;;;5037040;28;20557;-63
2022/11/03 10:49:50;;;;;;;5.05;1.30;;;;;;;;;;5036932;28;20087;-64
2022/11/03 10:52:20;;;;;;;5.35;1.55;;;;;;;;;;5037014;28;20405;-64
2022/11/03 10:54:47;;;;;;;2.83;1.50;;;;;;;;;;5038434;28;20040;-63
2022/11/03 10:57:14;;;;;;;4.13;2.15;;;;;;;;;;5038887;28;20033;-63
2022/11/03 10:59:41;;;;;;;2.05;1.05;;;;;;;;;;5038805;28;20042;-63
2022/11/03 11:02:18;;;;;;;21.70;1.63;;;;;;;;;;5039230;28;20176;-63
2022/11/03 11:04:48;;;;;;;2.83;1.30;;;;;;;;;;5037129;28;20610;-62
2022/11/03 11:07:19;;;;;;;3.15;1.20;;;;;;;;;;5038402;28;20040;-64
2022/11/03 11:09:45;;;;;;;10.13;1.20;;;;;;;;;;5035870;28;20049;-61
2022/11/03 11:12:17;;;;;;;2.38;1.20;;;;;;;;;;5039951;28;20087;-63
2022/11/03 11:15:06;;;;;;;6.00;1.42;;;;;;;;;;5037946;28;20037;-64
2022/11/03 11:17:35;;;;;;;3.08;1.77;;;;;;;;;;5035756;28;20044;-63
2022/11/03 11:20:22;;;;;;;2.47;1.38;;;;;;;;;;5042231;28;20059;-64
2022/11/03 11:22:50;;;;;;;1.48;0.88;;;;;;;;;;5028559;28;20041;-59
2022/11/03 11:25:19;;;;;;;7.68;2.17;;;;;;;;;;5036974;28;20040;-63
2022/11/03 11:27:46;;;;;;;2.28;1.25;;;;;;;;;;5036625;28;20553;-64
2022/11/03 11:30:19;;;;;;;4.90;1.00;;;;;;;;;;5040451;28;20041;-63
2022/11/03 11:32:46;;;;;;;4.28;2.10;;;;;;;;;;5039952;28;20036;-63
2022/11/03 11:35:23;;;;;;;2.88;1.52;;;;;;;;;;5043136;28;20065;-63
2022/11/03 11:37:50;;;;;;;2.40;1.33;;;;;;;;;;5041632;28;20029;-63
2022/11/03 11:40:23;;;;;;;2.30;1.17;;;;;;;;;;5045254;28;20049;-64
2022/11/03 11:43:09;;;;;;;6.43;1.45;;;;;;;;;;5042293;28;20052;-65
2022/11/03 11:45:54;;;;;;;3.30;2.03;;;;;;;;;;5039449;28;20493;-62
2022/11/03 11:48:21;;;;;;;2.85;1.42;;;;;;;;;;5040764;28;20041;-64
2022/11/03 11:50:47;;;;;;;2.78;1.15;;;;;;;;;;5039863;28;20087;-63
2022/11/03 11:53:18;;;;;;;2.50;1.40;;;;;;;;;;5039871;28;20138;-61
2022/11/03 11:55:49;;;;;;;2.55;1.40;;;;;;;;;;5034446;28;20494;-65
2022/11/03 11:58:20;;;;;;;9.25;1.48;;;;;;;;;;5040749;28;20129;-64
2022/11/03 12:00:51;;;;;;;4.15;2.35;;;;;;;;;;5041254;28;20041;-66
2022/11/03 12:03:21;;;;;;;5.65;1.52;;;;;;;;;;5041451;28;20647;-64
2022/11/03 12:05:49;;;;;;;2.92;1.50;;;;;;;;;;5041154;28;20056;-63
2022/11/03 12:08:20;;;;;;;9.05;1.52;;;;;;;;;;5040520;28;20335;-64
2022/11/03 12:10:53;;;;;;;3.42;1.65;;;;;;;;;;5040363;28;20591;-64
2022/11/03 12:13:38;;;;;;;3.30;1.65;;;;;;;;;;5040399;28;20041;-64
2022/11/03 12:16:04;;;;;;;12.75;3.30;;;;;;;;;;5040475;28;20061;-64
2022/11/03 12:18:43;;;;;;;3.55;1.52;;;;;;;;;;5041679;28;20615;-63
2022/11/03 12:21:14;;;;;;;2.38;1.27;;;;;;;;;;5039717;28;20091;-62
2022/11/03 12:23:45;;;;;;;4.55;1.55;;;;;;;;;;5040979;28;20034;-62
2022/11/03 12:26:16;;;;;;;4.03;2.00;;;;;;;;;;5041692;28;20033;-63
2022/11/03 12:28:42;;;;;;;3.20;1.55;;;;;;;;;;5038891;28;20039;-64
2022/11/03 12:31:09;;;;;;;4.47;2.22;;;;;;;;;;5039815;28;20856;-64
2022/11/03 12:33:36;;;;;;;2.65;1.52;;;;;;;;;;5040605;28;20086;-63
2022/11/03 12:36:02;;;;;;;3.10;1.80;;;;;;;;;;5039129;28;20033;-65
2022/11/03 12:38:29;;;;;;;2.90;1.75;;;;;;;;;;5040608;28;20044;-63
2022/11/03 12:40:56;;;;;;;2.75;1.65;;;;;;;;;;5040181;28;20045;-68
2022/11/03 12:43:22;;;;;;;7.90;2.88;;;;;;;;;;5040346;28;20094;-66
2022/11/03 12:45:49;;;;;;;4.60;1.50;;;;;;;;;;5041815;28;20042;-65
2022/11/03 12:48:16;;;;;;;4.82;2.22;;;;;;;;;;5019076;28;20822;-65
2022/11/03 12:50:42;;;;;;;3.35;1.90;;;;;;;;;;5022398;28;20463;-66
2022/11/03 12:53:09;;;;;;;3.17;1.63;;;;;;;;;;5039114;28;20041;-66
2022/11/03 12:55:35;;;;;;;3.45;1.67;;;;;;;;;;5038544;28;20045;-64
2022/11/03 12:58:02;;;;;;;1.92;1.10;;;;;;;;;;5041357;28;20771;-66
2022/11/03 13:00:29;;;;;;;8.00;1.73;;;;;;;;;;5038270;28;20500;-66
2022/11/03 13:02:55;;;;;;;3.40;1.75;;;;;;;;;;5039329;28;20045;-66
2022/11/03 13:05:24;;;;;;;4.57;1.52;;;;;;;;;;5041106;28;20033;-66
2022/11/03 13:07:50;;;;;;;4.10;1.65;;;;;;;;;;5039047;28;20052;-66
2022/11/03 13:10:17;;;;;;;7.38;2.47;;;;;;;;;;5030863;28;20053;-66
2022/11/03 13:12:44;;;;;;;2.70;1.58;;;;;;;;;;5027465;28;20552;-65
2022/11/03 13:15:12;;;;;;;3.78;1.30;;;;;;;;;;5047410;28;20045;-63
2022/11/03 13:17:39;;;;;;;5.05;1.98;;;;;;;;;;5038314;28;20048;-65
2022/11/03 13:20:06;;;;;;;2.30;1.08;;;;;;;;;;5039450;28;20045;-65
2022/11/03 13:22:32;;;;;;;3.42;1.73;;;;;;;;;;5040173;28;20033;-65
2022/11/03 13:24:59;;;;;;;2.47;1.35;;;;;;;;;;5040314;28;20042;-65
2022/11/03 13:27:25;;;;;;;4.05;1.73;;;;;;;;;;5039309;28;20056;-62
2022/11/03 13:29:54;;;;;;;1.25;0.65;;;;;;;;;;5039897;28;20043;-64
2022/11/03 13:32:21;;;;;;;3.47;1.73;;;;;;;;;;5037499;28;20171;-63
2022/11/03 13:34:48;;;;;;;1.88;1.20;;;;;;;;;;5019871;28;20394;-64
2022/11/03 13:37:15;;;;;;;1.95;1.02;;;;;;;;;;5016946;28;20045;-65
2022/11/03 13:39:41;;;;;;;2.80;1.20;;;;;;;;;;5017804;28;20599;-66
2022/11/03 13:42:08;;;;;;;3.88;1.63;;;;;;;;;;5019198;28;20136;-65
2022/11/03 13:44:35;;;;;;;4.15;1.63;;;;;;;;;;5018986;28;20044;-65
2022/11/03 13:47:02;;;;;;;3.72;2.10;;;;;;;;;;5022082;28;20091;-63
2022/11/03 13:49:29;;;;;;;5.40;2.17;;;;;;;;;;5020621;28;20379;-64
2022/11/03 13:51:55;;;;;;;5.15;2.25;;;;;;;;;;5019811;28;20052;-65
2022/11/03 13:54:22;;;;;;;4.55;2.22;;;;;;;;;;5050028;28;20085;-65
2022/11/03 13:56:49;;;;;;;6.93;2.97;;;;;;;;;;5038442;28;20044;-63
2022/11/03 13:59:15;;;;;;;5.72;3.22;;;;;;;;;;5037518;28;20041;-66
2022/11/03 14:01:42;;;;;;;5.68;2.95;;;;;;;;;;5051836;28;20040;-64
2022/11/03 14:04:09;;;;;;;5.30;2.60;;;;;;;;;;5040208;28;20132;-65
2022/11/03 14:06:35;;;;;;;6.80;3.42;;;;;;;;;;5038922;28;20033;-65
2022/11/03 14:09:02;;;;;;;8.85;3.38;;;;;;;;;;5037825;28;20053;-66
2022/11/03 14:14:17;;;;;;;10.73;3.47;;;;;;;;;;5032925;28;20041;-65
2022/11/03 14:16:44;;;;;;;3.60;2.17;;;;;;;;;;5037875;28;20076;-65
2022/11/03 14:19:10;;;;;;;6.30;2.53;;;;;;;;;;5037688;28;20037;-65
2022/11/03 14:21:41;;;;;;;3.88;2.22;;;;;;;;;;5040053;28;20717;-65
2022/11/03 14:24:08;;;;;;;4.57;1.95;;;;;;;;;;5040265;28;20032;-65
2022/11/03 14:26:35;;;;;;;3.85;2.28;;;;;;;;;;5036806;28;20041;-65
2022/11/03 14:29:01;;;;;;;3.33;2.03;;;;;;;;;;5039210;28;20052;-66
2022/11/03 14:31:28;;;;;;;6.97;1.95;;;;;;;;;;5037996;28;20048;-65
2022/11/03 14:33:54;;;;;;;3.47;1.77;;;;;;;;;;5037532;28;20045;-65
2022/11/03 14:36:21;;;;;;;2.42;1.38;;;;;;;;;;5036415;28;20056;-66
2022/11/03 14:38:48;;;;;;;2.20;1.10;;;;;;;;;;5039037;28;20041;-66
2022/11/03 14:43:59;;;;;;;4.82;1.50;;;;;;;;;;5019475;28;20140;-66
2022/11/03 14:46:26;;;;;;;1.65;0.98;;;;;;;;;;5026749;28;20098;-66
2022/11/03 14:48:53;;;;;;;2.53;1.48;;;;;;;;;;5054478;28;20401;-65
2022/11/03 14:51:20;;;;;;;3.30;1.55;;;;;;;;;;5051950;28;20105;-66
2022/11/03 14:53:46;;;;;;;2.28;1.27;;;;;;;;;;5038083;28;20031;-65
2022/11/03 14:56:13;;;;;;;1.88;0.98;;;;;;;;;;5053690;28;20041;-66
2022/11/03 14:58:40;;;;;;;3.42;1.63;;;;;;;;;;5038885;28;20615;-65
2022/11/03 15:01:06;;;;;;;2.55;1.52;;;;;;;;;;5039141;28;20037;-65
2022/11/03 15:03:33;;;;;;;4.15;1.80;;;;;;;;;;5039428;28;20044;-66
2022/11/03 15:05:59;;;;;;;3.03;1.67;;;;;;;;;;5043025;28;21461;-65
2022/11/03 15:08:28;;;;;;;5.10;1.50;;;;;;;;;;5042069;28;20046;-65
2022/11/03 15:10:55;;;;;;;3.65;1.75;;;;;;;;;;5042747;28;20064;-64
2022/11/03 15:13:21;;;;;;;3.55;1.75;;;;;;;;;;5042488;28;20146;-67
2022/11/03 15:15:48;;;;;;;2.65;1.10;;;;;;;;;;5039019;28;20045;-65
2022/11/03 15:18:15;;;;;;;4.72;1.73;;;;;;;;;;5042982;28;20029;-65